Red Bay, Florida
Current Conditions -  °F | °C
As of 7:15 AM on Saturday 22 Nov 2014 (Local Time) from K54J Reporting Station
Scattered Clouds Scattered Clouds  
Wind Chill: 44°   Ceiling: Unl
Heat Index: 49°   Visibility: 10mi
Dew Point: 42°   Wind: 12mph
Humidity: 78%   Direction: 60°ENE
Pressure: 30.3"   Gusts: NA
Location:  30.678°N, 85.9545°W
Report Text: K54J 221315Z AUTO 06010KT 10SM SCT050 09/06 A3030 RMK AO2 T00930057
Loading
Personal Weather Stations






























Interactive Weather Map New forecast layout! Learn more

10-Day Weather Forecast

Advertisements
Track Severe Weather on mobile